sensor_id;sensor_type;location;lat;lon;timestamp;P1;durP1;ratioP1;P2;durP2;ratioP2
42964;SDS011;28604;51.204;22.552;2024-03-02T00:00:20;39.42;;;22.02;;
42964;SDS011;28604;51.204;22.552;2024-03-02T00:03:07;34.28;;;19.70;;
42964;SDS011;28604;51.204;22.552;2024-03-02T00:05:35;33.30;;;19.88;;
42964;SDS011;28604;51.204;22.552;2024-03-02T00:08:02;34.20;;;21.48;;
42964;SDS011;28604;51.204;22.552;2024-03-02T00:10:35;40.35;;;21.40;;
42964;SDS011;28604;51.204;22.552;2024-03-02T00:13:08;34.60;;;21.13;;
42964;SDS011;28604;51.204;22.552;2024-03-02T00:15:47;37.72;;;22.75;;
42964;SDS011;28604;51.204;22.552;2024-03-02T00:20:56;38.75;;;22.30;;
42964;SDS011;28604;51.204;22.552;2024-03-02T00:23:23;43.15;;;24.23;;
42964;SDS011;28604;51.204;22.552;2024-03-02T00:25:50;42.53;;;25.02;;
42964;SDS011;28604;51.204;22.552;2024-03-02T00:33:23;43.30;;;26.02;;
42964;SDS011;28604;51.204;22.552;2024-03-02T00:35:51;43.45;;;26.95;;
42964;SDS011;28604;51.204;22.552;2024-03-02T00:38:18;48.13;;;28.92;;
42964;SDS011;28604;51.204;22.552;2024-03-02T00:40:44;49.67;;;28.42;;
42964;SDS011;28604;51.204;22.552;2024-03-02T00:46:18;54.67;;;30.30;;
42964;SDS011;28604;51.204;22.552;2024-03-02T00:48:51;57.60;;;30.98;;
42964;SDS011;28604;51.204;22.552;2024-03-02T00:51:22;54.05;;;30.58;;
42964;SDS011;28604;51.204;22.552;2024-03-02T00:53:50;60.08;;;33.67;;
42964;SDS011;28604;51.204;22.552;2024-03-02T00:56:18;55.28;;;32.08;;
42964;SDS011;28604;51.204;22.552;2024-03-02T00:58:44;60.03;;;32.38;;
42964;SDS011;28604;51.204;22.552;2024-03-02T01:01:10;60.05;;;33.05;;
42964;SDS011;28604;51.204;22.552;2024-03-02T01:03:36;60.75;;;34.72;;
42964;SDS011;28604;51.204;22.552;2024-03-02T01:06:03;64.32;;;34.53;;
42964;SDS011;28604;51.204;22.552;2024-03-02T01:08:29;55.95;;;33.58;;
42964;SDS011;28604;51.204;22.552;2024-03-02T01:10:55;55.78;;;32.53;;
42964;SDS011;28604;51.204;22.552;2024-03-02T01:13:22;60.92;;;33.45;;
42964;SDS011;28604;51.204;22.552;2024-03-02T01:15:49;59.10;;;33.58;;
42964;SDS011;28604;51.204;22.552;2024-03-02T01:18:15;59.70;;;34.67;;
42964;SDS011;28604;51.204;22.552;2024-03-02T01:20:41;60.47;;;33.55;;
42964;SDS011;28604;51.204;22.552;2024-03-02T01:23:07;59.22;;;32.72;;
42964;SDS011;28604;51.204;22.552;2024-03-02T01:25:33;55.33;;;33.10;;
42964;SDS011;28604;51.204;22.552;2024-03-02T01:27:59;60.28;;;32.38;;
42964;SDS011;28604;51.204;22.552;2024-03-02T01:30:25;56.85;;;31.85;;
42964;SDS011;28604;51.204;22.552;2024-03-02T01:32:51;58.42;;;31.00;;
42964;SDS011;28604;51.204;22.552;2024-03-02T01:35:17;58.75;;;32.42;;
42964;SDS011;28604;51.204;22.552;2024-03-02T01:37:43;54.60;;;31.05;;
42964;SDS011;28604;51.204;22.552;2024-03-02T01:40:09;56.72;;;31.50;;
42964;SDS011;28604;51.204;22.552;2024-03-02T01:42:39;53.10;;;30.13;;
42964;SDS011;28604;51.204;22.552;2024-03-02T01:45:05;53.83;;;30.63;;
42964;SDS011;28604;51.204;22.552;2024-03-02T01:47:32;50.97;;;26.67;;
42964;SDS011;28604;51.204;22.552;2024-03-02T01:49:58;51.00;;;29.02;;
42964;SDS011;28604;51.204;22.552;2024-03-02T01:52:25;58.92;;;27.83;;
42964;SDS011;28604;51.204;22.552;2024-03-02T01:54:52;53.15;;;27.95;;
42964;SDS011;28604;51.204;22.552;2024-03-02T01:57:17;49.60;;;28.17;;
42964;SDS011;28604;51.204;22.552;2024-03-02T01:59:44;53.80;;;29.13;;
42964;SDS011;28604;51.204;22.552;2024-03-02T02:02:13;53.42;;;28.05;;
42964;SDS011;28604;51.204;22.552;2024-03-02T02:04:40;44.33;;;28.27;;
42964;SDS011;28604;51.204;22.552;2024-03-02T02:07:06;52.35;;;27.77;;
42964;SDS011;28604;51.204;22.552;2024-03-02T02:09:32;50.40;;;28.45;;
42964;SDS011;28604;51.204;22.552;2024-03-02T02:11:58;55.90;;;28.85;;
42964;SDS011;28604;51.204;22.552;2024-03-02T02:14:25;50.85;;;27.35;;
42964;SDS011;28604;51.204;22.552;2024-03-02T02:16:51;52.88;;;29.45;;
42964;SDS011;28604;51.204;22.552;2024-03-02T02:19:17;57.35;;;30.05;;
42964;SDS011;28604;51.204;22.552;2024-03-02T02:21:43;57.85;;;30.55;;
42964;SDS011;28604;51.204;22.552;2024-03-02T02:24:09;50.55;;;29.52;;
42964;SDS011;28604;51.204;22.552;2024-03-02T02:26:38;55.08;;;29.77;;
42964;SDS011;28604;51.204;22.552;2024-03-02T02:29:05;60.85;;;33.08;;
42964;SDS011;28604;51.204;22.552;2024-03-02T02:31:40;58.00;;;32.40;;
42964;SDS011;28604;51.204;22.552;2024-03-02T02:34:07;65.35;;;31.38;;
42964;SDS011;28604;51.204;22.552;2024-03-02T02:36:34;61.75;;;32.42;;
42964;SDS011;28604;51.204;22.552;2024-03-02T02:39:03;63.92;;;33.97;;
42964;SDS011;28604;51.204;22.552;2024-03-02T02:41:32;63.83;;;32.67;;
42964;SDS011;28604;51.204;22.552;2024-03-02T02:43:58;64.05;;;34.42;;
42964;SDS011;28604;51.204;22.552;2024-03-02T02:46:24;60.92;;;33.45;;
42964;SDS011;28604;51.204;22.552;2024-03-02T02:48:50;57.88;;;33.78;;
42964;SDS011;28604;51.204;22.552;2024-03-02T02:51:18;62.20;;;34.13;;
42964;SDS011;28604;51.204;22.552;2024-03-02T02:53:44;63.90;;;33.85;;
42964;SDS011;28604;51.204;22.552;2024-03-02T02:56:10;64.82;;;33.20;;
42964;SDS011;28604;51.204;22.552;2024-03-02T02:58:36;60.30;;;34.17;;
42964;SDS011;28604;51.204;22.552;2024-03-02T03:01:02;61.78;;;33.53;;
42964;SDS011;28604;51.204;22.552;2024-03-02T03:03:29;67.93;;;34.75;;
42964;SDS011;28604;51.204;22.552;2024-03-02T03:05:55;68.53;;;34.08;;
42964;SDS011;28604;51.204;22.552;2024-03-02T03:08:21;68.93;;;35.60;;
42964;SDS011;28604;51.204;22.552;2024-03-02T03:10:48;64.97;;;36.45;;
42964;SDS011;28604;51.204;22.552;2024-03-02T03:13:15;68.15;;;35.90;;
42964;SDS011;28604;51.204;22.552;2024-03-02T03:15:41;72.95;;;38.30;;
42964;SDS011;28604;51.204;22.552;2024-03-02T03:18:07;72.35;;;37.03;;
42964;SDS011;28604;51.204;22.552;2024-03-02T03:20:33;75.15;;;38.28;;
42964;SDS011;28604;51.204;22.552;2024-03-02T03:22:59;76.63;;;38.63;;
42964;SDS011;28604;51.204;22.552;2024-03-02T03:25:25;71.05;;;35.75;;
42964;SDS011;28604;51.204;22.552;2024-03-02T03:27:51;73.00;;;37.47;;
42964;SDS011;28604;51.204;22.552;2024-03-02T03:30:20;77.15;;;37.55;;
42964;SDS011;28604;51.204;22.552;2024-03-02T03:35:45;72.75;;;37.75;;
42964;SDS011;28604;51.204;22.552;2024-03-02T03:38:11;80.15;;;40.13;;
42964;SDS011;28604;51.204;22.552;2024-03-02T03:40:37;69.82;;;35.92;;
42964;SDS011;28604;51.204;22.552;2024-03-02T03:43:03;75.55;;;40.70;;
42964;SDS011;28604;51.204;22.552;2024-03-02T03:45:29;74.80;;;39.50;;
42964;SDS011;28604;51.204;22.552;2024-03-02T03:47:56;77.82;;;40.45;;
42964;SDS011;28604;51.204;22.552;2024-03-02T03:50:21;77.85;;;40.45;;
42964;SDS011;28604;51.204;22.552;2024-03-02T03:52:48;74.53;;;39.03;;
42964;SDS011;28604;51.204;22.552;2024-03-02T03:55:13;79.57;;;39.58;;
42964;SDS011;28604;51.204;22.552;2024-03-02T03:57:39;81.68;;;39.58;;
42964;SDS011;28604;51.204;22.552;2024-03-02T04:00:06;81.85;;;39.13;;
42964;SDS011;28604;51.204;22.552;2024-03-02T04:02:38;74.55;;;38.42;;
42964;SDS011;28604;51.204;22.552;2024-03-02T04:05:04;72.07;;;38.92;;
42964;SDS011;28604;51.204;22.552;2024-03-02T04:07:37;75.03;;;39.92;;
42964;SDS011;28604;51.204;22.552;2024-03-02T04:10:06;70.63;;;36.78;;
42964;SDS011;28604;51.204;22.552;2024-03-02T04:12:34;75.93;;;37.63;;
42964;SDS011;28604;51.204;22.552;2024-03-02T04:15:02;72.70;;;37.42;;
42964;SDS011;28604;51.204;22.552;2024-03-02T04:17:32;72.97;;;37.00;;
42964;SDS011;28604;51.204;22.552;2024-03-02T04:19:59;75.47;;;35.80;;
42964;SDS011;28604;51.204;22.552;2024-03-02T04:22:26;67.45;;;36.00;;
42964;SDS011;28604;51.204;22.552;2024-03-02T04:24:52;74.40;;;37.05;;
42964;SDS011;28604;51.204;22.552;2024-03-02T04:27:19;75.57;;;38.08;;
42964;SDS011;28604;51.204;22.552;2024-03-02T04:29:45;71.57;;;37.35;;
42964;SDS011;28604;51.204;22.552;2024-03-02T04:32:11;76.05;;;38.95;;
42964;SDS011;28604;51.204;22.552;2024-03-02T04:34:37;78.43;;;39.55;;
42964;SDS011;28604;51.204;22.552;2024-03-02T04:37:03;84.97;;;39.47;;
42964;SDS011;28604;51.204;22.552;2024-03-02T04:39:29;90.13;;;41.65;;
42964;SDS011;28604;51.204;22.552;2024-03-02T04:41:55;93.43;;;43.45;;
42964;SDS011;28604;51.204;22.552;2024-03-02T04:44:21;91.53;;;44.47;;
42964;SDS011;28604;51.204;22.552;2024-03-02T04:46:47;93.60;;;44.33;;
42964;SDS011;28604;51.204;22.552;2024-03-02T04:49:13;91.30;;;44.05;;
42964;SDS011;28604;51.204;22.552;2024-03-02T04:51:39;106.18;;;46.65;;
42964;SDS011;28604;51.204;22.552;2024-03-02T04:54:05;96.72;;;45.70;;
42964;SDS011;28604;51.204;22.552;2024-03-02T04:56:31;102.05;;;44.92;;
42964;SDS011;28604;51.204;22.552;2024-03-02T04:58:57;106.13;;;48.03;;
42964;SDS011;28604;51.204;22.552;2024-03-02T05:01:23;106.70;;;45.92;;
42964;SDS011;28604;51.204;22.552;2024-03-02T05:03:49;105.68;;;47.25;;
42964;SDS011;28604;51.204;22.552;2024-03-02T05:06:14;102.85;;;46.85;;
42964;SDS011;28604;51.204;22.552;2024-03-02T05:08:41;106.32;;;47.42;;
42964;SDS011;28604;51.204;22.552;2024-03-02T05:11:07;99.43;;;43.47;;
42964;SDS011;28604;51.204;22.552;2024-03-02T05:13:51;107.88;;;45.13;;
42964;SDS011;28604;51.204;22.552;2024-03-02T05:16:17;100.32;;;45.63;;
42964;SDS011;28604;51.204;22.552;2024-03-02T05:18:43;108.97;;;45.67;;
42964;SDS011;28604;51.204;22.552;2024-03-02T05:21:09;102.82;;;45.58;;
42964;SDS011;28604;51.204;22.552;2024-03-02T05:23:35;109.93;;;46.67;;
42964;SDS011;28604;51.204;22.552;2024-03-02T05:26:01;104.50;;;45.90;;
42964;SDS011;28604;51.204;22.552;2024-03-02T05:28:27;107.68;;;47.40;;
42964;SDS011;28604;51.204;22.552;2024-03-02T05:30:53;114.22;;;48.78;;
42964;SDS011;28604;51.204;22.552;2024-03-02T05:33:19;112.22;;;47.83;;
42964;SDS011;28604;51.204;22.552;2024-03-02T05:35:47;110.85;;;49.80;;
42964;SDS011;28604;51.204;22.552;2024-03-02T05:38:15;114.68;;;46.67;;
42964;SDS011;28604;51.204;22.552;2024-03-02T05:40:41;102.10;;;43.95;;
42964;SDS011;28604;51.204;22.552;2024-03-02T05:43:07;104.60;;;45.72;;
42964;SDS011;28604;51.204;22.552;2024-03-02T05:45:33;109.35;;;44.95;;
42964;SDS011;28604;51.204;22.552;2024-03-02T05:47:59;109.07;;;47.25;;
42964;SDS011;28604;51.204;22.552;2024-03-02T05:50:25;105.85;;;44.63;;
42964;SDS011;28604;51.204;22.552;2024-03-02T05:52:52;108.20;;;44.65;;
42964;SDS011;28604;51.204;22.552;2024-03-02T05:55:18;112.15;;;48.00;;
42964;SDS011;28604;51.204;22.552;2024-03-02T05:57:44;111.57;;;46.97;;
42964;SDS011;28604;51.204;22.552;2024-03-02T06:00:10;100.10;;;46.67;;
42964;SDS011;28604;51.204;22.552;2024-03-02T06:02:39;108.65;;;47.97;;
42964;SDS011;28604;51.204;22.552;2024-03-02T06:05:06;102.10;;;45.92;;
42964;SDS011;28604;51.204;22.552;2024-03-02T06:07:35;106.03;;;45.95;;
42964;SDS011;28604;51.204;22.552;2024-03-02T06:10:01;99.50;;;45.25;;
42964;SDS011;28604;51.204;22.552;2024-03-02T06:12:27;101.20;;;44.35;;
42964;SDS011;28604;51.204;22.552;2024-03-02T06:14:53;95.00;;;44.17;;
42964;SDS011;28604;51.204;22.552;2024-03-02T06:17:19;97.97;;;44.67;;
42964;SDS011;28604;51.204;22.552;2024-03-02T06:19:45;98.28;;;44.60;;
42964;SDS011;28604;51.204;22.552;2024-03-02T06:22:12;96.20;;;46.35;;
42964;SDS011;28604;51.204;22.552;2024-03-02T06:24:37;95.88;;;44.65;;
42964;SDS011;28604;51.204;22.552;2024-03-02T06:27:03;92.18;;;43.90;;
42964;SDS011;28604;51.204;22.552;2024-03-02T06:29:32;95.35;;;42.83;;
42964;SDS011;28604;51.204;22.552;2024-03-02T06:31:59;95.40;;;42.70;;
42964;SDS011;28604;51.204;22.552;2024-03-02T06:34:25;94.97;;;43.60;;
42964;SDS011;28604;51.204;22.552;2024-03-02T06:36:51;87.85;;;43.90;;
42964;SDS011;28604;51.204;22.552;2024-03-02T06:39:17;97.90;;;45.20;;
42964;SDS011;28604;51.204;22.552;2024-03-02T06:41:43;93.43;;;45.05;;
42964;SDS011;28604;51.204;22.552;2024-03-02T06:44:09;87.57;;;42.90;;
42964;SDS011;28604;51.204;22.552;2024-03-02T06:46:35;96.75;;;46.40;;
42964;SDS011;28604;51.204;22.552;2024-03-02T06:49:01;93.95;;;45.05;;
42964;SDS011;28604;51.204;22.552;2024-03-02T06:51:28;86.53;;;44.63;;
42964;SDS011;28604;51.204;22.552;2024-03-02T06:53:54;87.10;;;43.38;;
42964;SDS011;28604;51.204;22.552;2024-03-02T06:56:20;76.88;;;41.53;;
42964;SDS011;28604;51.204;22.552;2024-03-02T06:58:46;84.35;;;42.67;;
42964;SDS011;28604;51.204;22.552;2024-03-02T07:01:12;83.80;;;42.10;;
42964;SDS011;28604;51.204;22.552;2024-03-02T07:03:38;81.72;;;41.55;;
42964;SDS011;28604;51.204;22.552;2024-03-02T07:06:05;83.45;;;39.85;;
42964;SDS011;28604;51.204;22.552;2024-03-02T07:08:31;80.32;;;40.72;;
42964;SDS011;28604;51.204;22.552;2024-03-02T07:10:57;76.53;;;39.70;;
42964;SDS011;28604;51.204;22.552;2024-03-02T07:13:23;72.05;;;37.60;;
42964;SDS011;28604;51.204;22.552;2024-03-02T07:15:49;75.10;;;36.92;;
42964;SDS011;28604;51.204;22.552;2024-03-02T07:18:33;71.25;;;36.10;;
42964;SDS011;28604;51.204;22.552;2024-03-02T07:21:02;68.82;;;35.50;;
42964;SDS011;28604;51.204;22.552;2024-03-02T07:23:28;65.88;;;34.42;;
42964;SDS011;28604;51.204;22.552;2024-03-02T07:25:55;69.18;;;37.33;;
42964;SDS011;28604;51.204;22.552;2024-03-02T07:28:30;66.32;;;35.00;;
42964;SDS011;28604;51.204;22.552;2024-03-02T07:31:01;62.40;;;34.50;;
42964;SDS011;28604;51.204;22.552;2024-03-02T07:33:28;64.78;;;33.13;;
42964;SDS011;28604;51.204;22.552;2024-03-02T07:35:54;62.60;;;31.55;;
42964;SDS011;28604;51.204;22.552;2024-03-02T07:38:25;53.78;;;31.02;;
42964;SDS011;28604;51.204;22.552;2024-03-02T07:40:52;59.08;;;31.35;;
42964;SDS011;28604;51.204;22.552;2024-03-02T07:43:20;66.35;;;32.45;;
42964;SDS011;28604;51.204;22.552;2024-03-02T07:45:47;61.13;;;32.47;;
42964;SDS011;28604;51.204;22.552;2024-03-02T07:48:14;54.65;;;31.00;;
42964;SDS011;28604;51.204;22.552;2024-03-02T07:50:40;57.05;;;30.48;;
42964;SDS011;28604;51.204;22.552;2024-03-02T07:53:07;54.00;;;31.08;;
42964;SDS011;28604;51.204;22.552;2024-03-02T07:55:33;57.90;;;31.05;;
42964;SDS011;28604;51.204;22.552;2024-03-02T07:58:00;60.13;;;30.38;;
42964;SDS011;28604;51.204;22.552;2024-03-02T08:00:26;56.05;;;30.23;;
42964;SDS011;28604;51.204;22.552;2024-03-02T08:02:53;55.88;;;29.95;;
42964;SDS011;28604;51.204;22.552;2024-03-02T08:05:21;60.65;;;31.63;;
42964;SDS011;28604;51.204;22.552;2024-03-02T08:07:47;56.35;;;31.55;;
42964;SDS011;28604;51.204;22.552;2024-03-02T08:10:13;56.05;;;31.50;;
42964;SDS011;28604;51.204;22.552;2024-03-02T08:12:39;55.10;;;32.03;;
42964;SDS011;28604;51.204;22.552;2024-03-02T08:15:05;48.60;;;28.88;;
42964;SDS011;28604;51.204;22.552;2024-03-02T08:17:32;49.53;;;27.80;;
42964;SDS011;28604;51.204;22.552;2024-03-02T08:19:58;51.03;;;27.88;;
42964;SDS011;28604;51.204;22.552;2024-03-02T08:22:24;46.55;;;27.13;;
42964;SDS011;28604;51.204;22.552;2024-03-02T08:24:53;50.03;;;28.70;;
42964;SDS011;28604;51.204;22.552;2024-03-02T08:27:20;48.95;;;27.90;;
42964;SDS011;28604;51.204;22.552;2024-03-02T08:29:46;57.90;;;29.88;;
42964;SDS011;28604;51.204;22.552;2024-03-02T08:32:12;51.55;;;29.17;;
42964;SDS011;28604;51.204;22.552;2024-03-02T08:34:38;56.05;;;27.65;;
42964;SDS011;28604;51.204;22.552;2024-03-02T08:37:04;50.85;;;27.35;;
42964;SDS011;28604;51.204;22.552;2024-03-02T08:39:30;59.13;;;30.98;;
42964;SDS011;28604;51.204;22.552;2024-03-02T08:41:56;50.92;;;29.73;;
42964;SDS011;28604;51.204;22.552;2024-03-02T08:44:22;56.47;;;28.90;;
42964;SDS011;28604;51.204;22.552;2024-03-02T08:46:48;58.55;;;28.85;;
42964;SDS011;28604;51.204;22.552;2024-03-02T08:49:14;49.90;;;26.88;;
42964;SDS011;28604;51.204;22.552;2024-03-02T08:51:40;57.78;;;29.15;;
42964;SDS011;28604;51.204;22.552;2024-03-02T08:54:06;52.30;;;28.92;;
42964;SDS011;28604;51.204;22.552;2024-03-02T08:56:32;53.45;;;29.10;;
42964;SDS011;28604;51.204;22.552;2024-03-02T08:58:58;55.92;;;27.92;;
42964;SDS011;28604;51.204;22.552;2024-03-02T09:01:24;52.50;;;30.10;;
42964;SDS011;28604;51.204;22.552;2024-03-02T09:03:50;50.58;;;28.55;;
42964;SDS011;28604;51.204;22.552;2024-03-02T09:06:16;53.63;;;28.25;;
42964;SDS011;28604;51.204;22.552;2024-03-02T09:08:43;55.45;;;28.05;;
42964;SDS011;28604;51.204;22.552;2024-03-02T09:11:09;51.10;;;27.42;;
42964;SDS011;28604;51.204;22.552;2024-03-02T09:13:36;50.40;;;26.73;;
42964;SDS011;28604;51.204;22.552;2024-03-02T09:16:03;52.60;;;28.42;;
42964;SDS011;28604;51.204;22.552;2024-03-02T09:18:30;50.83;;;27.05;;
42964;SDS011;28604;51.204;22.552;2024-03-02T09:20:57;50.50;;;27.70;;
42964;SDS011;28604;51.204;22.552;2024-03-02T09:23:22;48.83;;;27.08;;
42964;SDS011;28604;51.204;22.552;2024-03-02T09:25:48;50.55;;;27.50;;
42964;SDS011;28604;51.204;22.552;2024-03-02T09:28:17;47.55;;;26.90;;
42964;SDS011;28604;51.204;22.552;2024-03-02T09:30:44;50.40;;;28.17;;
42964;SDS011;28604;51.204;22.552;2024-03-02T09:33:09;44.75;;;26.55;;
42964;SDS011;28604;51.204;22.552;2024-03-02T09:35:36;50.55;;;27.35;;
42964;SDS011;28604;51.204;22.552;2024-03-02T09:38:01;45.28;;;27.17;;
42964;SDS011;28604;51.204;22.552;2024-03-02T09:40:29;48.80;;;27.60;;
42964;SDS011;28604;51.204;22.552;2024-03-02T09:42:55;52.45;;;27.73;;
42964;SDS011;28604;51.204;22.552;2024-03-02T09:45:22;52.45;;;27.92;;
42964;SDS011;28604;51.204;22.552;2024-03-02T09:47:50;48.25;;;27.08;;
42964;SDS011;28604;51.204;22.552;2024-03-02T09:50:16;53.45;;;26.63;;
42964;SDS011;28604;51.204;22.552;2024-03-02T09:52:42;49.17;;;27.17;;
42964;SDS011;28604;51.204;22.552;2024-03-02T09:55:09;49.25;;;28.15;;
42964;SDS011;28604;51.204;22.552;2024-03-02T09:57:36;53.70;;;28.65;;
42964;SDS011;28604;51.204;22.552;2024-03-02T10:00:03;50.70;;;27.95;;
42964;SDS011;28604;51.204;22.552;2024-03-02T10:02:30;69.88;;;35.97;;
42964;SDS011;28604;51.204;22.552;2024-03-02T10:04:56;69.68;;;36.95;;
42964;SDS011;28604;51.204;22.552;2024-03-02T10:07:22;62.72;;;34.40;;
42964;SDS011;28604;51.204;22.552;2024-03-02T10:09:48;71.63;;;34.90;;
42964;SDS011;28604;51.204;22.552;2024-03-02T10:12:15;56.70;;;31.92;;
42964;SDS011;28604;51.204;22.552;2024-03-02T10:14:48;53.10;;;30.27;;
42964;SDS011;28604;51.204;22.552;2024-03-02T10:17:17;60.45;;;31.02;;
42964;SDS011;28604;51.204;22.552;2024-03-02T10:19:43;54.30;;;29.75;;
42964;SDS011;28604;51.204;22.552;2024-03-02T10:22:10;61.47;;;32.90;;
42964;SDS011;28604;51.204;22.552;2024-03-02T10:24:37;56.63;;;29.90;;
42964;SDS011;28604;51.204;22.552;2024-03-02T10:27:10;53.40;;;29.65;;
42964;SDS011;28604;51.204;22.552;2024-03-02T10:29:40;46.58;;;27.25;;
42964;SDS011;28604;51.204;22.552;2024-03-02T10:32:09;45.63;;;27.40;;
42964;SDS011;28604;51.204;22.552;2024-03-02T10:34:37;47.30;;;29.05;;
42964;SDS011;28604;51.204;22.552;2024-03-02T10:37:05;49.00;;;29.05;;
42964;SDS011;28604;51.204;22.552;2024-03-02T10:39:34;45.28;;;28.77;;
42964;SDS011;28604;51.204;22.552;2024-03-02T10:42:06;48.30;;;28.85;;
42964;SDS011;28604;51.204;22.552;2024-03-02T10:44:33;51.65;;;29.98;;
42964;SDS011;28604;51.204;22.552;2024-03-02T10:47:03;62.95;;;32.53;;
42964;SDS011;28604;51.204;22.552;2024-03-02T10:49:32;53.13;;;29.77;;
42964;SDS011;28604;51.204;22.552;2024-03-02T10:51:58;50.05;;;28.45;;
42964;SDS011;28604;51.204;22.552;2024-03-02T10:54:25;50.00;;;29.50;;
42964;SDS011;28604;51.204;22.552;2024-03-02T10:56:55;42.58;;;28.23;;
42964;SDS011;28604;51.204;22.552;2024-03-02T11:01:57;53.08;;;27.75;;
42964;SDS011;28604;51.204;22.552;2024-03-02T11:04:25;47.88;;;29.02;;
42964;SDS011;28604;51.204;22.552;2024-03-02T11:07:08;46.00;;;28.63;;
42964;SDS011;28604;51.204;22.552;2024-03-02T11:09:37;49.30;;;28.38;;
42964;SDS011;28604;51.204;22.552;2024-03-02T11:12:09;45.83;;;27.52;;
42964;SDS011;28604;51.204;22.552;2024-03-02T11:15:02;53.17;;;27.40;;
42964;SDS011;28604;51.204;22.552;2024-03-02T11:17:34;50.10;;;29.10;;
42964;SDS011;28604;51.204;22.552;2024-03-02T11:20:00;49.17;;;29.55;;
42964;SDS011;28604;51.204;22.552;2024-03-02T11:22:28;47.97;;;28.25;;
42964;SDS011;28604;51.204;22.552;2024-03-02T11:24:55;50.35;;;28.60;;
42964;SDS011;28604;51.204;22.552;2024-03-02T11:30:54;50.70;;;27.92;;
42964;SDS011;28604;51.204;22.552;2024-03-02T11:35:42;50.50;;;27.42;;
42964;SDS011;28604;51.204;22.552;2024-03-02T11:38:12;54.60;;;27.83;;
42964;SDS011;28604;51.204;22.552;2024-03-02T11:40:41;47.45;;;27.05;;
42964;SDS011;28604;51.204;22.552;2024-03-02T11:43:07;43.88;;;26.13;;
42964;SDS011;28604;51.204;22.552;2024-03-02T11:45:35;42.45;;;24.88;;
42964;SDS011;28604;51.204;22.552;2024-03-02T11:48:05;44.75;;;27.13;;
42964;SDS011;28604;51.204;22.552;2024-03-02T11:50:36;40.33;;;25.40;;
42964;SDS011;28604;51.204;22.552;2024-03-02T11:53:12;38.17;;;24.15;;
42964;SDS011;28604;51.204;22.552;2024-03-02T11:55:39;45.05;;;26.85;;
42964;SDS011;28604;51.204;22.552;2024-03-02T11:58:14;41.25;;;25.67;;
42964;SDS011;28604;51.204;22.552;2024-03-02T12:00:46;47.33;;;25.67;;
42964;SDS011;28604;51.204;22.552;2024-03-02T12:03:12;50.13;;;26.75;;
42964;SDS011;28604;51.204;22.552;2024-03-02T12:05:40;39.30;;;24.42;;
42964;SDS011;28604;51.204;22.552;2024-03-02T12:08:07;39.25;;;25.23;;
42964;SDS011;28604;51.204;22.552;2024-03-02T12:10:34;43.28;;;23.88;;
42964;SDS011;28604;51.204;22.552;2024-03-02T12:13:02;44.40;;;26.08;;
42964;SDS011;28604;51.204;22.552;2024-03-02T12:15:30;40.75;;;23.90;;
42964;SDS011;28604;51.204;22.552;2024-03-02T12:17:57;38.35;;;23.98;;
42964;SDS011;28604;51.204;22.552;2024-03-02T12:20:26;37.85;;;23.73;;
42964;SDS011;28604;51.204;22.552;2024-03-02T12:22:54;41.15;;;23.58;;
42964;SDS011;28604;51.204;22.552;2024-03-02T12:25:23;40.33;;;24.52;;
42964;SDS011;28604;51.204;22.552;2024-03-02T12:27:51;38.40;;;24.67;;
42964;SDS011;28604;51.204;22.552;2024-03-02T12:30:22;38.42;;;24.77;;
42964;SDS011;28604;51.204;22.552;2024-03-02T12:32:48;38.67;;;23.95;;
42964;SDS011;28604;51.204;22.552;2024-03-02T12:35:15;42.70;;;23.80;;
42964;SDS011;28604;51.204;22.552;2024-03-02T12:37:45;39.50;;;24.27;;
42964;SDS011;28604;51.204;22.552;2024-03-02T12:40:12;40.08;;;25.02;;
42964;SDS011;28604;51.204;22.552;2024-03-02T12:42:39;37.95;;;23.63;;
42964;SDS011;28604;51.204;22.552;2024-03-02T12:45:06;40.42;;;24.08;;
42964;SDS011;28604;51.204;22.552;2024-03-02T12:47:33;38.08;;;23.98;;
42964;SDS011;28604;51.204;22.552;2024-03-02T12:49:59;40.30;;;24.73;;
42964;SDS011;28604;51.204;22.552;2024-03-02T12:52:26;45.33;;;26.15;;
42964;SDS011;28604;51.204;22.552;2024-03-02T12:54:52;45.92;;;26.38;;
42964;SDS011;28604;51.204;22.552;2024-03-02T12:57:24;48.35;;;24.85;;
42964;SDS011;28604;51.204;22.552;2024-03-02T13:00:04;44.58;;;24.67;;
42964;SDS011;28604;51.204;22.552;2024-03-02T13:02:34;50.50;;;29.20;;
42964;SDS011;28604;51.204;22.552;2024-03-02T13:05:02;36.75;;;22.98;;
42964;SDS011;28604;51.204;22.552;2024-03-02T13:07:28;45.28;;;25.85;;
42964;SDS011;28604;51.204;22.552;2024-03-02T13:09:55;49.03;;;25.70;;
42964;SDS011;28604;51.204;22.552;2024-03-02T13:12:22;47.63;;;25.85;;
42964;SDS011;28604;51.204;22.552;2024-03-02T13:14:51;43.78;;;26.38;;
42964;SDS011;28604;51.204;22.552;2024-03-02T13:17:17;37.78;;;24.50;;
42964;SDS011;28604;51.204;22.552;2024-03-02T13:19:56;47.40;;;25.05;;
42964;SDS011;28604;51.204;22.552;2024-03-02T13:22:23;41.20;;;23.80;;
42964;SDS011;28604;51.204;22.552;2024-03-02T13:24:50;43.90;;;23.48;;
42964;SDS011;28604;51.204;22.552;2024-03-02T13:27:17;47.58;;;25.27;;
42964;SDS011;28604;51.204;22.552;2024-03-02T13:29:46;43.85;;;23.75;;
42964;SDS011;28604;51.204;22.552;2024-03-02T13:32:13;42.75;;;23.80;;
42964;SDS011;28604;51.204;22.552;2024-03-02T13:34:40;41.80;;;23.48;;
42964;SDS011;28604;51.204;22.552;2024-03-02T13:37:06;38.45;;;22.58;;
42964;SDS011;28604;51.204;22.552;2024-03-02T13:39:32;48.63;;;22.95;;
42964;SDS011;28604;51.204;22.552;2024-03-02T13:42:05;42.50;;;24.08;;
42964;SDS011;28604;51.204;22.552;2024-03-02T13:44:33;44.17;;;24.40;;
42964;SDS011;28604;51.204;22.552;2024-03-02T13:47:00;42.35;;;23.73;;
42964;SDS011;28604;51.204;22.552;2024-03-02T13:49:26;44.25;;;23.92;;
42964;SDS011;28604;51.204;22.552;2024-03-02T13:52:06;38.92;;;23.23;;
42964;SDS011;28604;51.204;22.552;2024-03-02T13:54:45;48.70;;;24.17;;
42964;SDS011;28604;51.204;22.552;2024-03-02T13:57:12;43.28;;;24.27;;
42964;SDS011;28604;51.204;22.552;2024-03-02T13:59:40;48.85;;;25.38;;
42964;SDS011;28604;51.204;22.552;2024-03-02T14:02:07;41.75;;;24.00;;
42964;SDS011;28604;51.204;22.552;2024-03-02T14:04:34;48.97;;;24.95;;
42964;SDS011;28604;51.204;22.552;2024-03-02T14:07:01;41.35;;;24.38;;
42964;SDS011;28604;51.204;22.552;2024-03-02T14:09:27;45.97;;;24.25;;
42964;SDS011;28604;51.204;22.552;2024-03-02T14:11:54;40.58;;;23.92;;
42964;SDS011;28604;51.204;22.552;2024-03-02T14:14:20;41.00;;;21.70;;
42964;SDS011;28604;51.204;22.552;2024-03-02T14:16:47;46.05;;;26.05;;
42964;SDS011;28604;51.204;22.552;2024-03-02T14:19:13;49.05;;;26.77;;
42964;SDS011;28604;51.204;22.552;2024-03-02T14:21:39;43.80;;;26.63;;
42964;SDS011;28604;51.204;22.552;2024-03-02T14:24:05;45.55;;;26.65;;
42964;SDS011;28604;51.204;22.552;2024-03-02T14:26:35;37.92;;;25.10;;
42964;SDS011;28604;51.204;22.552;2024-03-02T14:29:04;45.25;;;25.05;;
42964;SDS011;28604;51.204;22.552;2024-03-02T14:31:30;46.60;;;24.15;;